This is the latest recevied weather packets stored in our database for station/object K6QM-1. If no packets are shown the sender has not sent any weather packets the latest 10 day(s).
| Time | Temp. | Humidity | Pressure | Rain* | Wind** | Luminosity | Snow |
|---|---|---|---|---|---|---|---|
| 1777608620 | 18.33° C | 54% | 1015 hPa | - | - | - | - |
| 1777607720 | 18.89° C | 53% | 1014.9 hPa | - | - | - | - |
| 1777606820 | 18.89° C | 52% | 1014.9 hPa | - | - | - | - |
| 1777605920 | 19.44° C | 51% | 1014.7 hPa | - | - | - | - |
| 1777605020 | 19.44° C | 52% | 1014.7 hPa | - | - | - | - |
| 1777604120 | 19.44° C | 52% | 1014.5 hPa | - | - | - | - |
| 1777603220 | 19.44° C | 54% | 1014.6 hPa | - | - | - | - |
| 1777602320 | 20° C | 50% | 1014.6 hPa | - | - | - | - |
| 1777601420 | 20° C | 52% | 1014.4 hPa | - | - | - | - |
| 1777600520 | 21.11° C | 49% | 1014.3 hPa | - | - | - | - |
| 1777587019 | 23.33° C | 46% | 1014.4 hPa | - | - | - | - |
| 1777584318 | 24.44° C | 43% | 1014.3 hPa | - | - | - | - |
| 1777583418 | 23.89° C | 45% | 1014.4 hPa | - | - | - | - |
| 1777582518 | 23.33° C | 45% | 1014.3 hPa | - | - | - | - |
| 1777580718 | 23.33° C | 46% | 1015.2 hPa | - | - | - | - |
| 1777579818 | 22.78° C | 46% | 1014.4 hPa | - | - | - | - |
| 1777578018 | 21.67° C | 48% | 1014.5 hPa | - | - | - | - |
| 1777577117 | 21.11° C | 49% | 1014.6 hPa | - | - | - | - |
| 1777576218 | 21.11° C | 49% | 1014.7 hPa | - | - | - | - |
| 1777573518 | 22.22° C | 46% | 1014.6 hPa | - | - | - | - |
| 1777572618 | 21.11° C | 48% | 1014.8 hPa | - | - | - | - |
| 1777569917 | 20° C | 52% | 1015.2 hPa | - | - | - | - |
| 1777568117 | 18.33° C | 56% | 1015.2 hPa | - | - | - | - |
| 1777567217 | 17.78° C | 57% | 1015.3 hPa | - | - | - | - |
| 1777565416 | 17.22° C | 59% | 1015.3 hPa | - | - | - | - |
* Rain since midnight (hover to see other rain measurements)
** Current wind speed in m/s (hover to see current wind gust speed)